Time,TemperatureF,DewpointF,PressureIn,WindDirection,WindDirectionDegrees,WindSpeedMPH,WindSpeedGustMPH,Humidity,HourlyPrecipIn,Conditions,Clouds,dailyrainin,SolarRadiationWatts/m^2,SoftwareType,DateUTC
2013-11-04 00:03:00,31.0,14.0,-100.00,North,4,3.0,12.0,49,0.00,,,0.00,0.000000,,2013-11-04 05:03:00,
2013-11-04 00:14:00,31.0,14.0,-100.00,North,4,3.0,12.0,49,0.00,,,0.00,0.000000,,2013-11-04 05:14:00,
2013-11-04 00:23:00,31.0,14.0,-100.00,North,4,3.0,12.0,49,0.00,,,0.00,0.000000,,2013-11-04 05:23:00,
2013-11-04 00:53:00,31.0,14.0,-100.00,WNW,302,3.0,8.0,49,0.00,,,0.00,0.000000,,2013-11-04 05:53:00,
2013-11-04 01:02:00,31.0,14.0,-100.00,WNW,302,3.0,8.0,49,0.00,,,0.00,0.000000,,2013-11-04 06:02:00,
2013-11-04 01:12:00,31.0,14.0,-100.00,WNW,302,3.0,8.0,49,0.00,,,0.00,0.000000,,2013-11-04 06:12:00,
2013-11-04 01:23:00,31.0,14.0,-100.00,WNW,302,3.0,8.0,49,0.00,,,0.00,0.000000,,2013-11-04 06:23:00,
2013-11-04 01:52:00,30.0,14.0,-100.00,NW,304,3.0,12.0,50,0.00,,,0.00,0.000000,,2013-11-04 06:52:00,
2013-11-04 02:01:00,30.0,14.0,-100.00,NW,304,3.0,12.0,50,0.00,,,0.00,0.000000,,2013-11-04 07:01:00,
2013-11-04 02:11:00,30.0,14.0,-100.00,NW,304,3.0,12.0,50,0.00,,,0.00,0.000000,,2013-11-04 07:11:00,
2013-11-04 02:22:00,30.0,14.0,-100.00,NW,304,3.0,12.0,50,0.00,,,0.00,0.000000,,2013-11-04 07:22:00,
2013-11-04 02:52:00,30.0,14.0,-100.00,WNW,302,3.0,9.0,50,0.00,,,0.00,0.000000,,2013-11-04 07:52:00,
2013-11-04 03:02:00,30.0,14.0,-100.00,WNW,302,3.0,9.0,50,0.00,,,0.00,0.000000,,2013-11-04 08:02:00,
2013-11-04 03:12:00,30.0,14.0,-100.00,WNW,302,3.0,9.0,50,0.00,,,0.00,0.000000,,2013-11-04 08:12:00,
2013-11-04 03:21:00,30.0,14.0,-100.00,WNW,302,3.0,9.0,50,0.00,,,0.00,0.000000,,2013-11-04 08:21:00,
2013-11-04 03:52:00,29.0,13.0,-100.00,WNW,300,3.0,10.0,51,0.00,,,0.00,0.000000,,2013-11-04 08:52:00,
2013-11-04 04:02:00,29.0,13.0,-100.00,WNW,300,3.0,10.0,51,0.00,,,0.00,0.000000,,2013-11-04 09:02:00,
2013-11-04 04:12:00,29.0,13.0,-100.00,WNW,300,3.0,10.0,51,0.00,,,0.00,0.000000,,2013-11-04 09:12:00,
2013-11-04 04:21:00,29.0,13.0,-100.00,WNW,300,3.0,10.0,51,0.00,,,0.00,0.000000,,2013-11-04 09:21:00,
2013-11-04 04:53:00,29.0,14.0,-100.00,WNW,299,3.0,7.0,53,0.00,,,0.00,0.000000,,2013-11-04 09:53:00,
2013-11-04 05:03:00,29.0,14.0,-100.00,WNW,299,3.0,7.0,53,0.00,,,0.00,0.000000,,2013-11-04 10:03:00,
2013-11-04 05:12:00,29.0,14.0,-100.00,WNW,299,3.0,7.0,53,0.00,,,0.00,0.000000,,2013-11-04 10:12:00,
2013-11-04 05:23:00,29.0,14.0,-100.00,WNW,299,3.0,7.0,53,0.00,,,0.00,0.000000,,2013-11-04 10:23:00,
2013-11-04 05:52:00,28.0,14.0,-100.00,North,2,2.0,10.0,55,0.00,,,0.00,0.000000,,2013-11-04 10:52:00,
2013-11-04 06:02:00,28.0,14.0,-100.00,North,2,2.0,10.0,55,0.00,,,0.00,0.000000,,2013-11-04 11:02:00,
2013-11-04 06:12:00,28.0,14.0,-100.00,North,2,2.0,10.0,55,0.00,,,0.00,0.000000,,2013-11-04 11:12:00,
2013-11-04 06:22:00,28.0,14.0,-100.00,North,2,2.0,10.0,55,0.00,,,0.00,0.000000,,2013-11-04 11:22:00,
2013-11-04 06:52:00,27.0,14.0,-100.00,NW,308,2.0,5.0,57,0.00,,,0.00,1.000000,,2013-11-04 11:52:00,
2013-11-04 07:02:00,27.0,14.0,-100.00,NW,308,2.0,5.0,57,0.00,,,0.00,1.000000,,2013-11-04 12:02:00,
2013-11-04 07:12:00,27.0,14.0,-100.00,NW,308,2.0,5.0,57,0.00,,,0.00,1.000000,,2013-11-04 12:12:00,
2013-11-04 07:22:00,27.0,14.0,-100.00,NW,308,2.0,5.0,57,0.00,,,0.00,1.000000,,2013-11-04 12:22:00,
2013-11-04 07:52:00,31.0,15.0,-100.00,North,5,3.0,6.0,51,0.00,,,0.00,42.000000,,2013-11-04 12:52:00,
2013-11-04 08:02:00,31.0,15.0,-100.00,North,5,3.0,6.0,51,0.00,,,0.00,42.000000,,2013-11-04 13:02:00,
2013-11-04 08:11:00,31.0,15.0,-100.00,North,5,3.0,6.0,51,0.00,,,0.00,42.000000,,2013-11-04 13:11:00,
2013-11-04 08:21:00,31.0,15.0,-100.00,North,5,3.0,6.0,51,0.00,,,0.00,42.000000,,2013-11-04 13:21:00,
2013-11-04 08:52:00,37.0,17.0,-100.00,NNE,23,4.0,8.0,43,0.00,,,0.00,227.000000,,2013-11-04 13:52:00,
2013-11-04 09:02:00,37.0,17.0,-100.00,NNE,23,4.0,8.0,43,0.00,,,0.00,227.000000,,2013-11-04 14:02:00,
2013-11-04 09:11:00,37.0,17.0,-100.00,NNE,23,4.0,8.0,43,0.00,,,0.00,227.000000,,2013-11-04 14:11:00,
2013-11-04 09:22:00,37.0,17.0,-100.00,NNE,23,4.0,8.0,43,0.00,,,0.00,227.000000,,2013-11-04 14:22:00,
2013-11-04 09:52:00,39.0,14.0,-100.00,NNE,16,5.0,12.0,36,0.00,,,0.00,368.000000,,2013-11-04 14:52:00,
2013-11-04 10:02:00,39.0,14.0,-100.00,NNE,16,5.0,12.0,36,0.00,,,0.00,368.000000,,2013-11-04 15:02:00,
2013-11-04 10:11:00,39.0,14.0,-100.00,NNE,16,5.0,12.0,36,0.00,,,0.00,368.000000,,2013-11-04 15:11:00,
2013-11-04 10:22:00,39.0,14.0,-100.00,NNE,16,5.0,12.0,36,0.00,,,0.00,368.000000,,2013-11-04 15:22:00,
2013-11-04 10:52:00,41.0,15.0,-100.00,North,1,5.0,14.0,34,0.00,,,0.00,470.000000,,2013-11-04 15:52:00,
2013-11-04 11:03:00,41.0,15.0,-100.00,North,1,5.0,14.0,34,0.00,,,0.00,470.000000,,2013-11-04 16:03:00,
2013-11-04 11:13:00,41.0,15.0,-100.00,North,1,5.0,14.0,34,0.00,,,0.00,470.000000,,2013-11-04 16:13:00,
2013-11-04 11:23:00,41.0,15.0,-100.00,North,1,5.0,14.0,34,0.00,,,0.00,470.000000,,2013-11-04 16:23:00,
2013-11-04 11:54:00,42.0,14.0,-100.00,NE,49,4.0,13.0,31,0.00,,,0.00,519.000000,,2013-11-04 16:54:00,
2013-11-04 12:03:00,42.0,14.0,-100.00,NE,49,4.0,13.0,31,0.00,,,0.00,519.000000,,2013-11-04 17:03:00,
2013-11-04 12:12:00,42.0,14.0,-100.00,NE,49,4.0,13.0,31,0.00,,,0.00,519.000000,,2013-11-04 17:12:00,
2013-11-04 12:22:00,42.0,14.0,-100.00,NE,49,4.0,13.0,31,0.00,,,0.00,519.000000,,2013-11-04 17:22:00,
2013-11-04 12:53:00,44.0,15.0,-100.00,NW,308,4.0,14.0,30,0.00,,,0.00,531.000000,,2013-11-04 17:53:00,
2013-11-04 13:02:00,44.0,15.0,-100.00,NW,308,4.0,14.0,30,0.00,,,0.00,531.000000,,2013-11-04 18:02:00,
2013-11-04 13:12:00,44.0,15.0,-100.00,NW,308,4.0,14.0,30,0.00,,,0.00,531.000000,,2013-11-04 18:12:00,
2013-11-04 13:23:00,44.0,15.0,-100.00,NW,308,4.0,14.0,30,0.00,,,0.00,531.000000,,2013-11-04 18:23:00,
2013-11-04 13:52:00,44.0,15.0,-100.00,North,4,4.0,11.0,30,0.00,,,0.00,434.000000,,2013-11-04 18:52:00,
2013-11-04 14:01:00,44.0,15.0,-100.00,North,4,4.0,11.0,30,0.00,,,0.00,434.000000,,2013-11-04 19:01:00,
2013-11-04 14:12:00,44.0,15.0,-100.00,North,4,4.0,11.0,30,0.00,,,0.00,434.000000,,2013-11-04 19:12:00,
2013-11-04 14:22:00,44.0,15.0,-100.00,North,4,4.0,11.0,30,0.00,,,0.00,434.000000,,2013-11-04 19:22:00,
2013-11-04 14:52:00,44.0,12.0,-100.00,NNE,15,5.0,10.0,27,0.00,,,0.00,356.000000,,2013-11-04 19:52:00,
2013-11-04 15:01:00,44.0,12.0,-100.00,NNE,15,5.0,10.0,27,0.00,,,0.00,356.000000,,2013-11-04 20:01:00,
2013-11-04 15:11:00,44.0,12.0,-100.00,NNE,15,5.0,10.0,27,0.00,,,0.00,356.000000,,2013-11-04 20:11:00,
2013-11-04 15:22:00,44.0,12.0,-100.00,NNE,15,5.0,10.0,27,0.00,,,0.00,356.000000,,2013-11-04 20:22:00,
2013-11-04 15:53:00,42.0,12.0,-100.00,North,1,2.0,9.0,29,0.00,,,0.00,188.000000,,2013-11-04 20:53:00,
2013-11-04 16:03:00,42.0,12.0,-100.00,North,1,2.0,9.0,29,0.00,,,0.00,188.000000,,2013-11-04 21:03:00,
2013-11-04 16:12:00,42.0,12.0,-100.00,North,1,2.0,9.0,29,0.00,,,0.00,188.000000,,2013-11-04 21:12:00,
2013-11-04 16:22:00,42.0,12.0,-100.00,North,1,2.0,9.0,29,0.00,,,0.00,188.000000,,2013-11-04 21:22:00,
2013-11-04 16:54:00,37.0,14.0,-100.00,NNW,328,1.0,5.0,39,0.00,,,0.00,15.000000,,2013-11-04 21:54:00,
2013-11-04 17:04:00,37.0,14.0,-100.00,NNW,328,1.0,5.0,39,0.00,,,0.00,15.000000,,2013-11-04 22:04:00,
2013-11-04 17:14:00,37.0,14.0,-100.00,NNW,328,1.0,5.0,39,0.00,,,0.00,15.000000,,2013-11-04 22:14:00,
2013-11-04 17:23:00,37.0,14.0,-100.00,NNW,328,1.0,5.0,39,0.00,,,0.00,15.000000,,2013-11-04 22:23:00,
2013-11-04 17:53:00,32.0,16.0,-100.00,WNW,302,2.0,2.0,52,0.00,,,0.00,1.000000,,2013-11-04 22:53:00,
2013-11-04 18:03:00,32.0,16.0,-100.00,WNW,302,2.0,2.0,52,0.00,,,0.00,1.000000,,2013-11-04 23:03:00,
2013-11-04 18:13:00,32.0,16.0,-100.00,WNW,302,2.0,2.0,52,0.00,,,0.00,1.000000,,2013-11-04 23:13:00,
2013-11-04 18:22:00,32.0,16.0,-100.00,WNW,302,2.0,2.0,52,0.00,,,0.00,1.000000,,2013-11-04 23:22:00,
2013-11-04 18:53:00,29.0,17.0,-100.00,WNW,297,2.0,3.0,61,0.00,,,0.00,0.000000,,2013-11-04 23:53:00,
2013-11-04 19:02:00,29.0,17.0,-100.00,WNW,297,2.0,3.0,61,0.00,,,0.00,0.000000,,2013-11-05 00:02:00,
2013-11-04 19:12:00,29.0,17.0,-100.00,WNW,297,2.0,3.0,61,0.00,,,0.00,0.000000,,2013-11-05 00:12:00,
2013-11-04 19:22:00,29.0,17.0,-100.00,WNW,297,2.0,3.0,61,0.00,,,0.00,0.000000,,2013-11-05 00:22:00,
2013-11-04 19:52:00,28.0,18.0,-100.00,WNW,300,2.0,3.0,67,0.00,,,0.00,0.000000,,2013-11-05 00:52:00,
2013-11-04 20:02:00,28.0,18.0,-100.00,WNW,300,2.0,3.0,67,0.00,,,0.00,0.000000,,2013-11-05 01:02:00,
2013-11-04 20:11:00,28.0,18.0,-100.00,WNW,300,2.0,3.0,67,0.00,,,0.00,0.000000,,2013-11-05 01:11:00,
2013-11-04 20:22:00,28.0,18.0,-100.00,WNW,300,2.0,3.0,67,0.00,,,0.00,0.000000,,2013-11-05 01:22:00,
2013-11-04 20:52:00,26.0,18.0,-100.00,WNW,294,2.0,4.0,71,0.00,,,0.00,0.000000,,2013-11-05 01:52:00,
2013-11-04 21:02:00,26.0,18.0,-100.00,WNW,294,2.0,4.0,71,0.00,,,0.00,0.000000,,2013-11-05 02:02:00,
2013-11-04 21:11:00,26.0,18.0,-100.00,WNW,294,2.0,4.0,71,0.00,,,0.00,0.000000,,2013-11-05 02:11:00,
2013-11-04 21:22:00,26.0,18.0,-100.00,WNW,294,2.0,4.0,71,0.00,,,0.00,0.000000,,2013-11-05 02:22:00,
2013-11-04 21:52:00,26.0,18.0,-100.00,WNW,286,3.0,4.0,70,0.00,,,0.00,0.000000,,2013-11-05 02:52:00,
2013-11-04 22:02:00,26.0,18.0,-100.00,WNW,286,3.0,4.0,70,0.00,,,0.00,0.000000,,2013-11-05 03:02:00,
2013-11-04 22:12:00,26.0,18.0,-100.00,WNW,286,3.0,4.0,70,0.00,,,0.00,0.000000,,2013-11-05 03:12:00,
2013-11-04 22:22:00,26.0,18.0,-100.00,WNW,286,3.0,4.0,70,0.00,,,0.00,0.000000,,2013-11-05 03:22:00,
2013-11-04 22:54:00,27.0,16.0,-100.00,WNW,289,3.0,5.0,64,0.00,,,0.00,0.000000,,2013-11-05 03:54:00,
2013-11-04 23:04:00,27.0,16.0,-100.00,WNW,289,3.0,5.0,64,0.00,,,0.00,0.000000,,2013-11-05 04:04:00,
2013-11-04 23:13:00,27.0,16.0,-100.00,WNW,289,3.0,5.0,64,0.00,,,0.00,0.000000,,2013-11-05 04:13:00,
2013-11-04 23:23:00,27.0,16.0,-100.00,WNW,289,3.0,5.0,64,0.00,,,0.00,0.000000,,2013-11-05 04:23:00,
2013-11-04 23:53:00,26.0,16.0,-100.00,WNW,288,3.0,4.0,66,0.00,,,0.00,0.000000,,2013-11-05 04:53:00,